Time;durP1;ratioP1;P1;durP2;ratioP2;P2;SDS_P1;SDS_P2;PMS_P1;PMS_P2;Temp;Humidity;BMP_temperature;BMP_pressure;BME280_temperature;BME280_humidity;BME280_pressure;Samples;Min_cycle;Max_cycle;Signal;HPM_P1;HPM_P2
2022/12/07 00:01:47;;;;;;;20.30;9.00;;;;;;;2.15;78.04;98428.72;103492;1294;97855;-69
2022/12/07 00:04:19;;;;;;;19.10;8.80;;;;;;;2.16;78.07;98425.39;103455;1294;109760;-68
2022/12/07 00:06:52;;;;;;;22.20;9.80;;;;;;;2.18;77.92;98427.39;103498;1292;95098;-69
2022/12/07 00:09:22;;;;;;;20.60;8.70;;;;;;;2.17;78.18;98421.63;103534;1298;107656;-67
2022/12/07 00:11:51;;;;;;;18.90;8.40;;;;;;;2.18;77.82;98425.61;103494;1291;99020;-68
2022/12/07 00:14:22;;;;;;;19.20;9.10;;;;;;;2.19;78.04;98425.95;103480;1294;99020;-69
2022/12/07 00:16:52;;;;;;;20.00;8.30;;;;;;;2.19;77.75;98426.24;103543;1291;112285;-68
2022/12/07 00:19:20;;;;;;;21.40;9.10;;;;;;;2.19;77.96;98429.59;103528;1291;97976;-68
2022/12/07 00:21:50;;;;;;;21.10;9.00;;;;;;;2.19;78.22;98428.91;103646;1291;108126;-69
2022/12/07 00:24:19;;;;;;;18.70;8.00;;;;;;;2.18;78.27;98436.45;103350;1294;97820;-70
2022/12/07 00:26:47;;;;;;;23.00;8.40;;;;;;;2.19;78.08;98439.02;103370;1298;97866;-68
2022/12/07 00:29:20;;;;;;;18.90;7.20;;;;;;;2.20;78.00;98437.95;103497;1294;111713;-67
2022/12/07 00:31:49;;;;;;;21.20;9.30;;;;;;;2.19;77.94;98438.69;103500;1300;95187;-68
2022/12/07 00:34:21;;;;;;;17.50;7.30;;;;;;;2.19;78.03;98441.10;103329;1294;105852;-68
2022/12/07 00:36:50;;;;;;;18.00;7.90;;;;;;;2.20;77.99;98440.22;103337;1299;97934;-68
2022/12/07 00:39:20;;;;;;;20.00;7.90;;;;;;;2.21;78.11;98441.06;103535;1291;97948;-69
2022/12/07 00:41:48;;;;;;;16.50;6.80;;;;;;;2.22;78.00;98445.55;103515;1292;112315;-69
2022/12/07 00:44:16;;;;;;;19.30;7.70;;;;;;;2.24;78.14;98445.96;103388;1294;98036;-69
2022/12/07 00:46:45;;;;;;;17.80;8.00;;;;;;;2.26;77.93;98447.46;103372;1295;108165;-70
2022/12/07 00:49:15;;;;;;;20.60;7.70;;;;;;;2.28;78.13;98444.21;103348;1298;99987;-70
2022/12/07 00:51:43;;;;;;;18.70;7.70;;;;;;;2.30;78.21;98442.54;103388;1294;95289;-69
2022/12/07 00:54:12;;;;;;;18.70;7.40;;;;;;;2.32;78.03;98444.02;103529;1299;111624;-68
2022/12/07 00:56:42;;;;;;;17.10;6.90;;;;;;;2.33;77.92;98445.02;103559;1299;97987;-68
2022/12/07 00:59:16;;;;;;;18.20;7.60;;;;;;;2.35;78.21;98445.28;103566;1291;107953;-69
2022/12/07 01:01:44;;;;;;;19.40;7.50;;;;;;;2.34;78.27;98442.48;103371;1298;97916;-67
2022/12/07 01:04:13;;;;;;;19.40;7.50;;;;;;;2.37;77.89;98442.91;103368;1294;97915;-69
2022/12/07 01:06:41;;;;;;;19.50;7.90;;;;;;;2.38;77.94;98441.28;103552;1299;111701;-69
2022/12/07 01:09:11;;;;;;;17.00;6.50;;;;;;;2.39;78.12;98438.41;103344;1297;97881;-68
2022/12/07 01:11:39;;;;;;;16.60;7.10;;;;;;;2.40;78.16;98435.39;103528;1284;108029;-70
2022/12/07 01:14:09;;;;;;;17.10;6.20;;;;;;;2.42;77.97;98435.48;103367;1294;97907;-68
2022/12/07 01:16:40;;;;;;;18.50;6.50;;;;;;;2.43;77.92;98435.10;103569;1293;97962;-70
2022/12/07 01:19:09;;;;;;;17.90;6.90;;;;;;;2.43;78.05;98429.65;103519;1296;111829;-69
2022/12/07 01:21:39;;;;;;;18.40;7.60;;;;;;;2.45;77.96;98428.50;103455;1294;96662;-69
2022/12/07 01:24:11;;;;;;;16.80;6.50;;;;;;;2.46;78.10;98423.53;103640;1291;107134;-69
2022/12/07 01:26:38;;;;;;;18.00;6.80;;;;;;;2.48;78.25;98423.07;103658;1298;97930;-69
2022/12/07 01:29:06;;;;;;;18.30;7.50;;;;;;;2.50;78.16;98424.91;103629;1291;97908;-69
2022/12/07 01:31:34;;;;;;;16.50;6.90;;;;;;;2.52;78.16;98420.96;103388;1301;111784;-69
2022/12/07 01:34:04;;;;;;;17.70;7.50;;;;;;;2.53;78.16;98423.58;103353;1287;97964;-68
2022/12/07 01:36:35;;;;;;;17.60;7.80;;;;;;;2.50;77.93;98426.15;103545;1291;107833;-70
2022/12/07 01:39:07;;;;;;;18.20;7.30;;;;;;;2.50;78.05;98422.11;103520;1292;95298;-68
2022/12/07 01:41:43;;;;;;;17.00;7.50;;;;;;;2.48;78.07;98420.64;103523;1301;98038;-67
2022/12/07 01:44:25;;;;;;;21.80;7.30;;;;;;;2.47;77.89;98424.71;103397;1294;111809;-68
2022/12/07 01:46:56;;;;;;;16.00;6.60;;;;;;;2.47;77.98;98425.76;103327;1294;97934;-71
2022/12/07 01:49:34;;;;;;;17.40;6.90;;;;;;;2.48;77.92;98428.52;103253;1294;107215;-70
2022/12/07 01:52:14;;;;;;;18.50;6.80;;;;;;;2.50;78.07;98425.80;103413;1294;98034;-69
2022/12/07 01:54:47;;;;;;;15.20;6.00;;;;;;;2.50;78.10;98428.77;103441;1291;97884;-69
2022/12/07 01:57:17;;;;;;;13.40;5.90;;;;;;;2.51;78.07;98424.04;103442;1291;111096;-70
2022/12/07 01:59:51;;;;;;;16.30;6.90;;;;;;;2.51;77.89;98426.29;103417;1295;96677;-68
2022/12/07 02:02:31;;;;;;;15.80;5.90;;;;;;;2.50;78.19;98425.96;103491;1291;107854;-69
2022/12/07 02:05:04;;;;;;;13.70;5.50;;;;;;;2.48;78.06;98428.52;103413;1294;96332;-68
2022/12/07 02:07:36;;;;;;;17.10;6.20;;;;;;;2.46;78.06;98423.55;103581;1291;97908;-69
2022/12/07 02:10:25;;;;;;;15.40;6.00;;;;;;;2.46;78.02;98422.69;103293;1286;111307;-70
2022/12/07 02:13:19;;;;;;;16.10;6.60;;;;;;;2.46;78.03;98428.11;103431;1298;98426;-69
2022/12/07 02:16:15;;;;;;;16.20;6.40;;;;;;;2.44;77.92;98426.98;103428;1299;107821;-69
2022/12/07 02:19:06;;;;;;;16.50;6.60;;;;;;;2.44;78.10;98429.98;103400;1299;97916;-69
2022/12/07 02:21:52;;;;;;;15.30;6.20;;;;;;;2.42;77.95;98428.47;103334;1295;95248;-69
2022/12/07 02:24:52;;;;;;;15.40;6.00;;;;;;;2.42;78.00;98431.10;103338;1299;111835;-69
2022/12/07 02:27:40;;;;;;;14.70;6.10;;;;;;;2.42;78.00;98432.16;103536;1292;98217;-69
2022/12/07 02:30:14;;;;;;;16.70;6.00;;;;;;;2.42;77.98;98425.18;103452;1291;108149;-67
2022/12/07 02:32:42;;;;;;;;;;;;;;;2.41;77.93;98430.09;103530;1291;97953;-67
2022/12/07 02:35:41;;;;;;;12.70;5.90;;;;;;;2.38;78.17;98429.70;103551;1291;95148;-68
2022/12/07 02:38:26;;;;;;;15.70;6.20;;;;;;;2.34;77.99;98427.98;103546;1299;111636;-68
2022/12/07 02:41:05;;;;;;;15.70;6.40;;;;;;;2.32;78.17;98428.95;103308;1299;96142;-68
2022/12/07 02:43:52;;;;;;;15.40;6.70;;;;;;;2.33;77.94;98424.71;103495;1299;107542;-69
2022/12/07 02:46:27;;;;;;;14.00;5.50;;;;;;;2.32;77.92;98424.58;103496;1285;97880;-67
2022/12/07 02:49:01;;;;;;;16.60;6.80;;;;;;;2.30;78.02;98419.61;103321;1294;97908;-69
2022/12/07 02:51:39;;;;;;;17.80;6.20;;;;;;;2.26;77.93;98419.29;103565;1295;110937;-67
2022/12/07 02:54:18;;;;;;;17.10;6.20;;;;;;;2.24;78.34;98419.93;103572;1299;98633;-69
2022/12/07 02:57:05;;;;;;;16.30;5.90;;;;;;;2.21;78.17;98420.55;103530;1298;107353;-69
2022/12/07 03:00:12;;;;;;;15.10;6.10;;;;;;;2.19;78.20;98424.72;103344;1294;97855;-70
2022/12/07 03:02:55;;;;;;;14.80;5.50;;;;;;;2.17;78.26;98426.20;103379;1298;96605;-68
2022/12/07 03:05:43;;;;;;;;;;;;;;;2.14;78.20;98419.54;103473;1292;111542;-68
2022/12/07 03:08:24;;;;;;;11.10;5.00;;;;;;;2.11;78.37;98418.77;103390;1292;98443;-69
2022/12/07 03:11:02;;;;;;;13.80;5.40;;;;;;;2.11;78.08;98418.58;103420;1291;108070;-71
2022/12/07 03:13:39;;;;;;;12.80;5.50;;;;;;;2.11;78.13;98420.55;103429;1299;97907;-69
2022/12/07 03:16:35;;;;;;;13.00;5.30;;;;;;;2.09;78.36;98421.31;103413;1298;95199;-67
2022/12/07 03:19:14;;;;;;;11.10;5.00;;;;;;;2.09;78.52;98420.64;103511;1295;111183;-68
2022/12/07 03:21:57;;;;;;;12.50;5.60;;;;;;;2.08;78.22;98418.23;103517;1289;96206;-69
2022/12/07 03:24:36;;;;;;;14.80;6.20;;;;;;;2.09;78.39;98409.97;103394;1291;108130;-69
2022/12/07 03:27:10;;;;;;;14.00;5.50;;;;;;;2.10;78.32;98408.19;103547;1291;97887;-68
2022/12/07 03:30:01;;;;;;;15.50;6.20;;;;;;;2.12;78.40;98408.62;103328;1298;98638;-68
2022/12/07 03:32:44;;;;;;;15.30;5.90;;;;;;;2.13;78.42;98407.31;103574;1299;111732;-68
2022/12/07 03:35:30;;;;;;;12.20;5.20;;;;;;;2.15;78.46;98406.16;103403;1292;97978;-67
2022/12/07 03:38:17;;;;;;;13.10;5.70;;;;;;;2.17;78.36;98403.27;103392;1295;108189;-69
2022/12/07 03:40:49;;;;;;;15.20;6.20;;;;;;;2.21;78.51;98400.30;103441;1292;95187;-68
2022/12/07 03:43:21;;;;;;;13.00;5.90;;;;;;;2.23;78.35;98398.25;103484;1301;98540;-69
2022/12/07 03:46:02;;;;;;;16.70;6.20;;;;;;;2.24;78.30;98399.79;103484;1294;111104;-68
2022/12/07 03:48:47;;;;;;;14.80;5.80;;;;;;;2.26;78.55;98396.90;103378;1294;97919;-69
2022/12/07 03:51:33;;;;;;;13.20;5.70;;;;;;;2.27;78.52;98392.31;103468;1298;107491;-68
2022/12/07 03:54:27;;;;;;;12.30;5.40;;;;;;;2.28;78.35;98392.08;103338;1288;98064;-67
2022/12/07 03:56:58;;;;;;;13.50;6.00;;;;;;;2.30;78.41;98387.40;103372;1294;95236;-69
2022/12/07 03:59:28;;;;;;;14.30;5.80;;;;;;;2.32;78.37;98380.17;103543;1298;111079;-68
2022/12/07 04:02:02;;;;;;;13.80;5.60;;;;;;;2.31;78.31;98375.65;103395;1301;97990;-68
2022/12/07 04:04:34;;;;;;;14.20;5.70;;;;;;;2.32;78.23;98375.06;103472;1295;108105;-69
2022/12/07 04:07:02;;;;;;;15.00;6.20;;;;;;;2.33;78.03;98374.30;103554;1291;95208;-70
2022/12/07 04:09:31;;;;;;;12.30;5.50;;;;;;;2.34;78.23;98376.17;103461;1294;97860;-70
2022/12/07 04:11:59;;;;;;;14.60;5.90;;;;;;;2.35;78.23;98377.71;103566;1291;111880;-71
2022/12/07 04:14:30;;;;;;;14.00;5.90;;;;;;;2.37;78.23;98378.67;103544;1298;95204;-71
2022/12/07 04:16:59;;;;;;;15.10;5.90;;;;;;;2.38;78.30;98380.20;103567;1291;106671;-68
2022/12/07 04:19:31;;;;;;;12.30;5.70;;;;;;;2.41;78.47;98379.02;103611;1291;98380;-69
2022/12/07 04:22:02;;;;;;;14.60;6.10;;;;;;;2.41;78.12;98381.80;103456;1299;97876;-71
2022/12/07 04:24:31;;;;;;;17.50;6.10;;;;;;;2.43;78.26;98379.79;103374;1300;111201;-69
2022/12/07 04:27:00;;;;;;;14.80;5.90;;;;;;;2.45;78.22;98373.90;103412;1302;97987;-70
2022/12/07 04:29:31;;;;;;;13.90;5.40;;;;;;;2.47;78.26;98377.84;103373;1294;108178;-69
2022/12/07 04:31:59;;;;;;;13.40;5.40;;;;;;;2.48;78.30;98373.08;103361;1294;97906;-70
2022/12/07 04:34:27;;;;;;;14.70;6.30;;;;;;;2.48;78.22;98371.64;103431;1301;95286;-68
2022/12/07 04:36:56;;;;;;;15.60;6.00;;;;;;;2.49;78.09;98370.02;103452;1292;112042;-68
2022/12/07 04:39:29;;;;;;;14.90;5.70;;;;;;;2.48;78.20;98366.91;103486;1297;97981;-69
2022/12/07 04:41:59;;;;;;;12.20;5.90;;;;;;;2.48;78.18;98369.36;103567;1298;107130;-68
2022/12/07 04:44:30;;;;;;;16.00;5.90;;;;;;;2.50;78.43;98371.69;103500;1298;97918;-69
2022/12/07 04:46:59;;;;;;;14.50;6.10;;;;;;;2.52;78.33;98371.09;103427;1294;98440;-70
2022/12/07 04:49:29;;;;;;;15.40;6.20;;;;;;;2.54;78.28;98368.75;103353;1294;111676;-70
2022/12/07 04:51:57;;;;;;;16.50;6.10;;;;;;;2.53;78.40;98367.02;103456;1294;97834;-69
2022/12/07 04:54:25;;;;;;;18.50;6.80;;;;;;;2.54;78.54;98365.73;103570;1292;107962;-69
2022/12/07 04:56:52;;;;;;;16.90;6.20;;;;;;;2.56;78.33;98364.27;103488;1298;97824;-69
2022/12/07 04:59:21;;;;;;;14.60;6.30;;;;;;;2.57;78.44;98364.58;103495;1291;98006;-69
2022/12/07 05:01:49;;;;;;;16.80;6.70;;;;;;;2.58;78.34;98362.40;103485;1298;111691;-70
2022/12/07 05:04:18;;;;;;;16.20;6.40;;;;;;;2.58;78.13;98360.13;103279;1302;98021;-70
2022/12/07 05:06:47;;;;;;;17.30;7.60;;;;;;;2.58;78.11;98356.64;103158;1297;108218;-69
2022/12/07 05:09:15;;;;;;;18.10;7.40;;;;;;;2.58;78.26;98361.16;103390;1292;97880;-69
2022/12/07 05:11:43;;;;;;;17.50;7.30;;;;;;;2.58;78.33;98356.80;103434;1298;95315;-70
2022/12/07 05:14:17;;;;;;;16.70;6.80;;;;;;;2.58;78.22;98353.66;103395;1302;112164;-69
2022/12/07 05:16:50;;;;;;;17.80;6.80;;;;;;;2.57;78.42;98349.14;103517;1295;98077;-69
2022/12/07 05:19:20;;;;;;;16.90;7.20;;;;;;;2.56;78.26;98349.40;103320;1294;107487;-69
2022/12/07 05:21:48;;;;;;;15.60;6.40;;;;;;;2.56;78.16;98351.46;103438;1291;97882;-70
2022/12/07 05:24:19;;;;;;;16.00;6.40;;;;;;;2.55;78.32;98354.66;103427;1289;95092;-70
2022/12/07 05:26:48;;;;;;;14.80;6.40;;;;;;;2.52;78.15;98358.66;103452;1291;111665;-72
2022/12/07 05:29:17;;;;;;;14.90;6.10;;;;;;;2.51;78.33;98357.50;103427;1291;96965;-69
2022/12/07 05:31:46;;;;;;;16.80;6.70;;;;;;;2.49;78.18;98353.23;103383;1294;108587;-70
2022/12/07 05:34:14;;;;;;;16.60;6.60;;;;;;;2.49;78.15;98349.74;103445;1299;97960;-68
2022/12/07 05:36:42;;;;;;;17.60;7.30;;;;;;;2.49;78.06;98353.23;103394;1292;97868;-69
2022/12/07 05:39:11;;;;;;;16.10;7.00;;;;;;;2.49;78.33;98351.99;103514;1298;110749;-69
2022/12/07 05:44:40;;;;;;;16.50;6.00;;;;;;;2.49;78.49;98357.58;103193;1298;108236;-69
2022/12/07 05:47:10;;;;;;;18.00;6.60;;;;;;;2.50;78.12;98360.72;103387;1298;97942;-70
2022/12/07 05:49:40;;;;;;;14.50;6.90;;;;;;;2.48;78.31;98359.92;103339;1291;95276;-69
2022/12/07 05:52:08;;;;;;;17.20;6.70;;;;;;;2.48;78.55;98359.72;103544;1297;111718;-68
2022/12/07 05:54:35;;;;;;;16.10;6.20;;;;;;;2.48;78.58;98358.67;103563;1298;97965;-69
2022/12/07 05:57:04;;;;;;;14.10;5.80;;;;;;;2.48;78.54;98357.48;103484;1292;110499;-69
2022/12/07 05:59:32;;;;;;;13.20;5.70;;;;;;;2.47;78.38;98357.16;103467;1298;99020;-69
2022/12/07 06:02:05;;;;;;;16.20;6.70;;;;;;;2.47;78.19;98357.37;103467;1278;97877;-68
2022/12/07 06:04:38;;;;;;;15.80;6.30;;;;;;;2.45;78.09;98354.65;103323;1301;110776;-69
2022/12/07 06:07:06;;;;;;;14.90;5.80;;;;;;;2.45;78.31;98351.50;103426;1291;97874;-68
2022/12/07 06:09:36;;;;;;;15.10;5.50;;;;;;;2.45;78.21;98354.48;103251;1294;108180;-68
2022/12/07 06:14:55;;;;;;;11.30;4.80;;;;;;;2.43;78.41;98351.77;103467;1292;96678;-68
2022/12/07 06:17:24;;;;;;;13.10;4.90;;;;;;;2.43;78.29;98350.56;103481;1298;111368;-68
2022/12/07 06:19:52;;;;;;;11.50;5.00;;;;;;;2.42;78.30;98351.30;103393;1300;97908;-69
2022/12/07 06:22:20;;;;;;;13.70;5.30;;;;;;;2.41;78.41;98352.39;103378;1294;108035;-68
2022/12/07 06:24:48;;;;;;;11.70;5.20;;;;;;;2.42;78.40;98352.56;103444;1292;98560;-69
2022/12/07 06:27:16;;;;;;;14.00;6.00;;;;;;;2.40;78.31;98348.61;103342;1296;96216;-69
2022/12/07 06:29:44;;;;;;;15.10;5.40;;;;;;;2.39;78.25;98346.19;103240;1294;111750;-67
2022/12/07 06:32:12;;;;;;;12.60;5.00;;;;;;;2.38;78.21;98348.71;103394;1299;97930;-67
2022/12/07 06:34:40;;;;;;;12.80;5.20;;;;;;;2.36;78.21;98346.92;103396;1291;107272;-67
2022/12/07 06:37:08;;;;;;;12.50;4.60;;;;;;;2.32;78.37;98348.99;103370;1294;97992;-68
2022/12/07 06:39:36;;;;;;;12.80;5.60;;;;;;;2.30;78.38;98349.98;103411;1298;97955;-69
2022/12/07 06:42:04;;;;;;;14.50;5.70;;;;;;;2.30;78.28;98352.25;103489;1291;111802;-70
2022/12/07 06:44:32;;;;;;;13.50;6.10;;;;;;;2.30;78.40;98349.81;103488;1278;97868;-69
2022/12/07 06:47:01;;;;;;;12.40;5.50;;;;;;;2.28;78.34;98349.54;103492;1291;108314;-70
2022/12/07 06:49:52;;;;;;;16.70;6.70;;;;;;;2.29;78.58;98348.64;103318;1298;97827;-69
2022/12/07 06:52:21;;;;;;;14.40;5.90;;;;;;;2.29;78.34;98349.48;103496;1291;95577;-68
2022/12/07 06:54:50;;;;;;;14.20;5.80;;;;;;;2.27;78.28;98353.77;103991;1292;111724;-69
2022/12/07 06:57:20;;;;;;;13.30;6.00;;;;;;;2.27;78.42;98355.71;103430;1298;98492;-68
2022/12/07 06:59:49;;;;;;;16.00;6.90;;;;;;;2.28;78.79;98361.61;103375;1294;107423;-68
2022/12/07 07:02:17;;;;;;;15.30;6.50;;;;;;;2.29;78.25;98360.88;103626;1299;97696;-69
2022/12/07 07:04:47;;;;;;;16.10;7.10;;;;;;;2.28;78.54;98359.52;103422;1299;96397;-69
2022/12/07 07:07:15;;;;;;;15.20;6.10;;;;;;;2.29;78.29;98369.97;103461;1298;110754;-68
2022/12/07 07:09:44;;;;;;;17.80;7.20;;;;;;;2.29;78.35;98367.02;103403;1297;98098;-70
2022/12/07 07:12:12;;;;;;;15.30;6.50;;;;;;;2.28;78.65;98368.97;103394;1291;107681;-68
2022/12/07 07:14:40;;;;;;;14.80;6.40;;;;;;;2.29;78.51;98369.27;103340;1294;96483;-69
2022/12/07 07:17:08;;;;;;;16.20;7.00;;;;;;;2.29;78.38;98370.50;103494;1291;97809;-69
2022/12/07 07:19:37;;;;;;;14.10;6.30;;;;;;;2.29;78.44;98370.00;103301;1298;111829;-68
2022/12/07 07:22:06;;;;;;;16.50;7.10;;;;;;;2.28;78.33;98370.58;103333;1291;97867;-68
2022/12/07 07:24:34;;;;;;;15.80;6.40;;;;;;;2.26;78.35;98376.58;103255;1298;107835;-68
2022/12/07 07:27:02;;;;;;;15.20;7.00;;;;;;;2.24;78.07;98379.49;103229;1295;97966;-68
2022/12/07 07:29:30;;;;;;;16.30;7.20;;;;;;;2.23;78.17;98378.83;103400;1297;96600;-68
2022/12/07 07:32:00;;;;;;;15.90;7.40;;;;;;;2.23;78.27;98372.02;103311;1301;111781;-68
2022/12/07 07:34:35;;;;;;;12.80;6.10;;;;;;;2.23;78.26;98365.55;103363;1294;97972;-68
2022/12/07 07:37:04;;;;;;;15.60;7.00;;;;;;;2.23;78.49;98365.38;103365;1301;108063;-68
2022/12/07 07:39:32;;;;;;;16.30;7.50;;;;;;;2.23;78.38;98369.40;103349;1301;97980;-68
2022/12/07 07:42:00;;;;;;;18.40;7.80;;;;;;;2.25;78.30;98366.85;103400;1301;97894;-68
2022/12/07 07:44:28;;;;;;;17.10;7.90;;;;;;;2.27;78.33;98369.71;103476;1292;110263;-69
2022/12/07 07:47:03;;;;;;;17.30;8.00;;;;;;;2.27;78.24;98370.74;103508;1300;95390;-69
2022/12/07 07:49:33;;;;;;;15.80;7.50;;;;;;;2.26;78.46;98373.61;103371;1294;108177;-68
2022/12/07 07:52:01;;;;;;;17.30;7.30;;;;;;;2.27;78.29;98371.65;103275;1302;97934;-68
2022/12/07 07:54:29;;;;;;;17.90;7.70;;;;;;;2.28;78.36;98369.69;103440;1290;96316;-69
2022/12/07 07:56:58;;;;;;;18.30;8.00;;;;;;;2.29;78.18;98372.81;103468;1302;112058;-69
2022/12/07 07:59:27;;;;;;;19.00;8.50;;;;;;;2.29;78.56;98372.23;103434;1292;97956;-69
2022/12/07 08:01:55;;;;;;;19.70;8.00;;;;;;;2.30;78.44;98370.29;103361;1298;108233;-69
2022/12/07 08:04:24;;;;;;;18.30;8.50;;;;;;;2.29;78.58;98369.61;103315;1298;97939;-68
2022/12/07 08:06:53;;;;;;;19.20;8.30;;;;;;;2.31;78.79;98373.73;103241;1301;98362;-68
2022/12/07 08:09:22;;;;;;;21.70;10.10;;;;;;;2.32;78.83;98379.08;103305;1302;111906;-67
2022/12/07 08:11:51;;;;;;;17.50;7.40;;;;;;;2.34;78.58;98384.77;103385;1294;96470;-68
2022/12/07 08:14:18;;;;;;;16.00;7.30;;;;;;;2.32;78.68;98387.48;103318;1301;109323;-68
2022/12/07 08:16:46;;;;;;;15.90;7.30;;;;;;;2.32;78.32;98382.42;103337;1292;95206;-68
2022/12/07 08:19:15;;;;;;;17.60;8.00;;;;;;;2.33;78.62;98384.66;103262;1301;97199;-68
2022/12/07 08:21:43;;;;;;;18.00;8.10;;;;;;;2.33;78.45;98389.38;103208;1301;110970;-67
2022/12/07 08:24:11;;;;;;;15.60;7.70;;;;;;;2.33;78.33;98391.80;103373;1300;97775;-67
2022/12/07 08:26:40;;;;;;;14.70;7.20;;;;;;;2.35;78.48;98396.98;103256;1294;108271;-68
2022/12/07 08:29:10;;;;;;;17.70;7.40;;;;;;;2.35;78.56;98398.02;103305;1294;98727;-68
2022/12/07 08:31:38;;;;;;;16.20;7.60;;;;;;;2.35;78.49;98394.52;103303;1294;97958;-69
2022/12/07 08:34:06;;;;;;;17.60;8.30;;;;;;;2.37;78.39;98396.19;103451;1291;112902;-69
2022/12/07 08:36:37;;;;;;;17.60;8.30;;;;;;;2.38;78.52;98396.48;103353;1295;97961;-67
2022/12/07 08:39:06;;;;;;;16.50;7.20;;;;;;;2.38;78.58;98396.47;103436;1291;107244;-70
2022/12/07 08:41:54;;;;;;;17.50;8.20;;;;;;;2.36;78.71;98398.83;103377;1301;98069;-68
2022/12/07 08:44:22;;;;;;;17.40;7.70;;;;;;;2.36;78.32;98398.15;103452;1292;97872;-68
2022/12/07 08:46:56;;;;;;;16.30;8.20;;;;;;;2.35;78.38;98398.89;103456;1298;112159;-68
2022/12/07 08:49:37;;;;;;;16.50;7.70;;;;;;;2.36;78.68;98402.00;103299;1300;97786;-68
2022/12/07 08:52:07;;;;;;;17.40;7.60;;;;;;;2.39;78.68;98402.74;103158;1297;108100;-67
2022/12/07 08:54:39;;;;;;;18.80;8.80;;;;;;;2.40;78.52;98404.61;103416;1292;98061;-68
2022/12/07 08:57:08;;;;;;;18.30;8.40;;;;;;;2.41;78.51;98401.23;103445;1297;95129;-67
2022/12/07 08:59:38;;;;;;;20.00;8.20;;;;;;;2.41;78.25;98397.39;103457;1299;111870;-67
2022/12/07 09:02:06;;;;;;;16.30;7.90;;;;;;;2.42;78.48;98398.55;103385;1292;96148;-68
2022/12/07 09:04:37;;;;;;;17.20;8.00;;;;;;;2.43;78.52;98397.30;103375;1291;108181;-69
2022/12/07 09:07:07;;;;;;;18.70;8.60;;;;;;;2.43;78.28;98397.27;103373;1297;97863;-68
2022/12/07 09:09:36;;;;;;;20.00;8.60;;;;;;;2.44;78.44;98396.33;103396;1295;97738;-68
2022/12/07 09:12:04;;;;;;;15.40;7.40;;;;;;;2.46;78.31;98393.25;103366;1291;110395;-68
2022/12/07 09:14:32;;;;;;;18.50;8.90;;;;;;;2.48;78.62;98391.76;103469;1297;96282;-70
2022/12/07 09:17:11;;;;;;;17.80;7.90;;;;;;;2.49;78.61;98391.71;103238;1294;108304;-68
2022/12/07 09:19:40;;;;;;;16.90;7.80;;;;;;;2.51;78.58;98392.66;103359;1288;97883;-68
2022/12/07 09:22:12;;;;;;;17.80;8.10;;;;;;;2.53;78.67;98395.38;103404;1293;97911;-68
2022/12/07 09:24:39;;;;;;;17.00;7.50;;;;;;;2.52;78.68;98395.56;103364;1299;111178;-68
2022/12/07 09:27:07;;;;;;;16.10;7.90;;;;;;;2.53;78.50;98392.55;103240;1293;97842;-68
2022/12/07 09:29:37;;;;;;;17.80;8.30;;;;;;;2.53;78.66;98392.40;103399;1297;107929;-68
2022/12/07 09:32:06;;;;;;;18.60;8.50;;;;;;;2.51;78.68;98392.51;103416;1299;96329;-68
2022/12/07 09:34:38;;;;;;;17.50;7.50;;;;;;;2.50;78.48;98388.19;103365;1299;97840;-69
2022/12/07 09:37:08;;;;;;;18.20;8.20;;;;;;;2.50;78.47;98389.23;103466;1294;111752;-68
2022/12/07 09:39:40;;;;;;;17.90;8.50;;;;;;;2.49;78.51;98386.65;103459;1299;97806;-68
2022/12/07 09:42:24;;;;;;;17.40;8.40;;;;;;;2.49;78.53;98383.49;103223;1294;107520;-69
2022/12/07 09:44:53;;;;;;;19.10;8.60;;;;;;;2.49;78.73;98383.33;103500;1299;97952;-69
2022/12/07 09:47:22;;;;;;;16.50;7.90;;;;;;;2.49;78.49;98381.38;103518;1297;97910;-69
2022/12/07 09:49:53;;;;;;;15.70;7.40;;;;;;;2.51;78.49;98378.83;103355;1294;111182;-68
2022/12/07 09:52:28;;;;;;;14.80;7.50;;;;;;;2.54;78.62;98381.16;103345;1291;95302;-68
2022/12/07 09:55:28;;;;;;;16.50;7.60;;;;;;;2.55;78.57;98379.36;103315;1294;108498;-68
2022/12/07 09:57:58;;;;;;;16.70;7.80;;;;;;;2.53;78.38;98379.98;103439;1299;97903;-69
2022/12/07 10:00:28;;;;;;;16.90;7.30;;;;;;;2.50;78.64;98375.20;103385;1298;98060;-69
2022/12/07 10:02:56;;;;;;;17.20;7.50;;;;;;;2.47;78.49;98377.27;103481;1291;111804;-68
2022/12/07 10:05:34;;;;;;;15.40;7.00;;;;;;;2.45;78.60;98379.48;103443;1298;95118;-70
2022/12/07 10:08:05;;;;;;;16.90;7.20;;;;;;;2.43;78.32;98378.92;103260;1299;107266;-69
2022/12/07 10:10:38;;;;;;;18.80;8.40;;;;;;;2.39;78.51;98375.96;103433;1297;97927;-69
2022/12/07 10:13:10;;;;;;;16.40;7.30;;;;;;;2.37;78.34;98378.50;103451;1291;97933;-68
2022/12/07 10:15:56;;;;;;;15.90;7.20;;;;;;;2.37;78.39;98377.98;103414;1297;110907;-69
2022/12/07 10:18:37;;;;;;;19.10;7.40;;;;;;;2.37;78.83;98373.09;103333;1294;95193;-68
2022/12/07 10:21:11;;;;;;;19.40;8.30;;;;;;;2.38;78.90;98369.33;103301;1298;107621;-68
2022/12/07 10:24:01;;;;;;;15.10;7.30;;;;;;;2.41;78.46;98374.11;103465;1291;97959;-69
2022/12/07 10:26:34;;;;;;;17.60;7.70;;;;;;;2.43;78.70;98373.15;103327;1301;98010;-69
2022/12/07 10:29:21;;;;;;;17.00;8.10;;;;;;;2.46;78.55;98374.23;103424;1291;110853;-68
2022/12/07 10:32:02;;;;;;;16.80;7.30;;;;;;;2.48;78.42;98373.07;103424;1291;97925;-68
2022/12/07 10:34:34;;;;;;;19.00;8.70;;;;;;;2.48;78.55;98375.34;103465;1295;108183;-68
2022/12/07 10:37:16;;;;;;;19.60;8.70;;;;;;;2.48;78.79;98375.85;103362;1298;95261;-69
2022/12/07 10:39:56;;;;;;;19.00;8.60;;;;;;;2.49;78.62;98373.86;103480;1291;96252;-68
2022/12/07 10:42:31;;;;;;;16.60;8.30;;;;;;;2.50;78.77;98374.31;103249;1302;111452;-68
2022/12/07 10:45:16;;;;;;;18.90;8.40;;;;;;;2.51;78.80;98371.51;103460;1295;96419;-68
2022/12/07 10:48:21;;;;;;;19.60;9.50;;;;;;;2.52;78.67;98375.63;103283;1302;107202;-68
2022/12/07 10:51:08;;;;;;;21.70;9.80;;;;;;;2.52;78.64;98372.68;103361;1305;97959;-67
2022/12/07 10:54:01;;;;;;;20.40;9.40;;;;;;;2.52;78.61;98374.94;103488;1299;98009;-69
2022/12/07 10:56:48;;;;;;;21.70;10.00;;;;;;;2.52;78.45;98371.79;103438;1291;110505;-69
2022/12/07 10:59:56;;;;;;;19.50;9.30;;;;;;;2.53;78.36;98370.70;103414;1298;97959;-68
2022/12/07 11:03:01;;;;;;;19.40;8.60;;;;;;;2.56;78.86;98374.08;103527;1291;107692;-69
2022/12/07 11:05:49;;;;;;;19.20;8.90;;;;;;;2.58;78.69;98373.41;103464;1291;95649;-69
2022/12/07 11:08:39;;;;;;;19.20;8.90;;;;;;;2.62;78.97;98372.35;103431;1291;96386;-68
2022/12/07 11:11:29;;;;;;;21.10;9.00;;;;;;;2.65;78.83;98377.94;103441;1291;111920;-67
2022/12/07 11:14:53;;;;;;;15.90;7.20;;;;;;;2.69;78.84;98372.66;103583;1299;97852;-68
2022/12/07 11:17:49;;;;;;;17.20;6.90;;;;;;;2.72;78.56;98371.34;103160;1305;107354;-68
2022/12/07 11:20:40;;;;;;;15.70;6.90;;;;;;;2.75;78.83;98368.20;103416;1291;97967;-69
2022/12/07 11:23:57;;;;;;;16.40;6.90;;;;;;;2.78;78.58;98363.80;103334;1301;98046;-69
2022/12/07 11:27:03;;;;;;;17.00;6.80;;;;;;;2.82;78.99;98359.91;103422;1291;111596;-68
2022/12/07 11:29:58;;;;;;;12.40;5.70;;;;;;;2.86;78.81;98360.45;103516;1291;96197;-69
2022/12/07 11:32:59;;;;;;;16.60;6.20;;;;;;;2.86;78.84;98358.17;103453;1297;108073;-68
2022/12/07 11:35:46;;;;;;;15.50;6.40;;;;;;;2.87;78.86;98355.11;103385;1298;97858;-70
2022/12/07 11:38:22;;;;;;;16.90;6.70;;;;;;;2.87;78.73;98362.67;103431;1297;96574;-69
2022/12/07 11:41:12;;;;;;;;;;;;;;;2.86;78.87;98367.08;103399;1292;112093;-68
2022/12/07 11:44:00;;;;;;;16.00;6.20;;;;;;;2.85;79.00;98365.23;103383;1291;95516;-69
2022/12/07 11:46:44;;;;;;;16.20;7.00;;;;;;;2.87;79.14;98366.67;103388;1295;107816;-70
2022/12/07 11:49:23;;;;;;;19.30;8.10;;;;;;;2.88;78.62;98367.02;103436;1302;97825;-69
2022/12/07 11:51:59;;;;;;;18.60;8.60;;;;;;;2.87;78.86;98369.50;103483;1294;97908;-69
2022/12/07 11:54:35;;;;;;;20.90;9.30;;;;;;;2.89;79.06;98369.73;103489;1291;111697;-69
2022/12/07 11:57:12;;;;;;;20.20;8.30;;;;;;;2.89;78.78;98369.71;103516;1292;97866;-70
2022/12/07 11:59:58;;;;;;;20.90;9.10;;;;;;;2.89;78.86;98366.05;103415;1297;110496;-71
2022/12/07 12:02:43;;;;;;;18.00;8.40;;;;;;;2.90;78.90;98364.10;103440;1297;96305;-70